sensor_id;sensor_type;location;lat;lon;timestamp;P1;durP1;ratioP1;P2;durP2;ratioP2
80219;SDS011;70247;37.958;23.722;2023-06-14T00:01:21;19.27;;;8.85;;
80219;SDS011;70247;37.958;23.722;2023-06-14T00:03:47;21.75;;;8.57;;
80219;SDS011;70247;37.958;23.722;2023-06-14T00:06:13;13.82;;;6.15;;
80219;SDS011;70247;37.958;23.722;2023-06-14T00:08:39;9.30;;;5.95;;
80219;SDS011;70247;37.958;23.722;2023-06-14T00:11:05;10.73;;;6.40;;
80219;SDS011;70247;37.958;23.722;2023-06-14T00:13:32;15.63;;;6.45;;
80219;SDS011;70247;37.958;23.722;2023-06-14T00:15:58;11.90;;;6.95;;
80219;SDS011;70247;37.958;23.722;2023-06-14T00:18:24;10.10;;;6.82;;
80219;SDS011;70247;37.958;23.722;2023-06-14T00:20:54;17.13;;;7.25;;
80219;SDS011;70247;37.958;23.722;2023-06-14T00:23:20;14.10;;;6.80;;
80219;SDS011;70247;37.958;23.722;2023-06-14T00:25:46;12.20;;;7.30;;
80219;SDS011;70247;37.958;23.722;2023-06-14T00:28:12;11.20;;;6.95;;
80219;SDS011;70247;37.958;23.722;2023-06-14T00:30:38;9.07;;;6.80;;
80219;SDS011;70247;37.958;23.722;2023-06-14T00:33:04;17.98;;;7.20;;
80219;SDS011;70247;37.958;23.722;2023-06-14T00:35:30;9.68;;;7.50;;
80219;SDS011;70247;37.958;23.722;2023-06-14T00:37:56;12.18;;;7.47;;
80219;SDS011;70247;37.958;23.722;2023-06-14T00:40:22;15.85;;;7.13;;
80219;SDS011;70247;37.958;23.722;2023-06-14T00:42:47;14.43;;;6.75;;
80219;SDS011;70247;37.958;23.722;2023-06-14T00:45:13;17.23;;;6.88;;
80219;SDS011;70247;37.958;23.722;2023-06-14T00:47:40;10.10;;;6.18;;
80219;SDS011;70247;37.958;23.722;2023-06-14T00:50:08;13.48;;;6.13;;
80219;SDS011;70247;37.958;23.722;2023-06-14T00:52:34;8.05;;;4.90;;
80219;SDS011;70247;37.958;23.722;2023-06-14T00:55:01;9.23;;;5.32;;
80219;SDS011;70247;37.958;23.722;2023-06-14T00:57:27;9.75;;;5.70;;
80219;SDS011;70247;37.958;23.722;2023-06-14T00:59:54;9.93;;;5.85;;
80219;SDS011;70247;37.958;23.722;2023-06-14T01:02:21;6.70;;;5.35;;
80219;SDS011;70247;37.958;23.722;2023-06-14T01:04:47;8.15;;;5.95;;
80219;SDS011;70247;37.958;23.722;2023-06-14T01:07:17;11.77;;;5.50;;
80219;SDS011;70247;37.958;23.722;2023-06-14T01:15:28;10.88;;;5.22;;
80219;SDS011;70247;37.958;23.722;2023-06-14T01:17:56;13.77;;;5.60;;
80219;SDS011;70247;37.958;23.722;2023-06-14T01:20:28;9.75;;;5.18;;
80219;SDS011;70247;37.958;23.722;2023-06-14T01:22:55;11.07;;;5.65;;
80219;SDS011;70247;37.958;23.722;2023-06-14T01:25:22;9.65;;;5.10;;
80219;SDS011;70247;37.958;23.722;2023-06-14T01:27:51;18.95;;;6.22;;
80219;SDS011;70247;37.958;23.722;2023-06-14T01:30:20;14.93;;;6.20;;
80219;SDS011;70247;37.958;23.722;2023-06-14T01:32:48;12.73;;;5.63;;
80219;SDS011;70247;37.958;23.722;2023-06-14T01:35:15;11.13;;;5.75;;
80219;SDS011;70247;37.958;23.722;2023-06-14T01:37:41;10.25;;;5.32;;
80219;SDS011;70247;37.958;23.722;2023-06-14T01:40:09;13.18;;;5.95;;
80219;SDS011;70247;37.958;23.722;2023-06-14T01:42:36;13.05;;;5.32;;
80219;SDS011;70247;37.958;23.722;2023-06-14T01:45:06;13.25;;;5.78;;
80219;SDS011;70247;37.958;23.722;2023-06-14T01:47:33;17.58;;;5.53;;
80219;SDS011;70247;37.958;23.722;2023-06-14T01:50:01;14.55;;;5.68;;
80219;SDS011;70247;37.958;23.722;2023-06-14T01:52:28;12.95;;;5.88;;
80219;SDS011;70247;37.958;23.722;2023-06-14T01:54:53;13.35;;;6.00;;
80219;SDS011;70247;37.958;23.722;2023-06-14T01:57:19;9.73;;;5.82;;
80219;SDS011;70247;37.958;23.722;2023-06-14T01:59:46;10.00;;;5.60;;
80219;SDS011;70247;37.958;23.722;2023-06-14T02:02:13;10.05;;;5.93;;
80219;SDS011;70247;37.958;23.722;2023-06-14T02:04:40;10.30;;;5.95;;
80219;SDS011;70247;37.958;23.722;2023-06-14T02:07:06;11.88;;;5.57;;
80219;SDS011;70247;37.958;23.722;2023-06-14T02:09:35;7.70;;;5.30;;
80219;SDS011;70247;37.958;23.722;2023-06-14T02:12:01;6.82;;;5.65;;
80219;SDS011;70247;37.958;23.722;2023-06-14T02:14:27;12.48;;;6.10;;
80219;SDS011;70247;37.958;23.722;2023-06-14T02:16:53;10.88;;;5.47;;
80219;SDS011;70247;37.958;23.722;2023-06-14T02:19:19;10.20;;;5.75;;
80219;SDS011;70247;37.958;23.722;2023-06-14T02:21:46;9.15;;;5.15;;
80219;SDS011;70247;37.958;23.722;2023-06-14T02:24:12;10.75;;;5.28;;
80219;SDS011;70247;37.958;23.722;2023-06-14T02:26:38;9.20;;;5.20;;
80219;SDS011;70247;37.958;23.722;2023-06-14T02:29:04;9.13;;;5.38;;
80219;SDS011;70247;37.958;23.722;2023-06-14T02:31:35;13.57;;;5.75;;
80219;SDS011;70247;37.958;23.722;2023-06-14T02:34:01;12.93;;;5.20;;
80219;SDS011;70247;37.958;23.722;2023-06-14T02:36:28;8.48;;;5.07;;
80219;SDS011;70247;37.958;23.722;2023-06-14T02:38:55;10.13;;;5.38;;
80219;SDS011;70247;37.958;23.722;2023-06-14T02:41:24;8.18;;;5.07;;
80219;SDS011;70247;37.958;23.722;2023-06-14T02:43:51;9.57;;;5.28;;
80219;SDS011;70247;37.958;23.722;2023-06-14T02:46:17;8.48;;;5.35;;
80219;SDS011;70247;37.958;23.722;2023-06-14T02:48:43;9.10;;;5.13;;
80219;SDS011;70247;37.958;23.722;2023-06-14T02:51:10;10.80;;;5.57;;
80219;SDS011;70247;37.958;23.722;2023-06-14T02:53:37;16.17;;;5.60;;
80219;SDS011;70247;37.958;23.722;2023-06-14T02:56:03;10.95;;;5.20;;
80219;SDS011;70247;37.958;23.722;2023-06-14T02:58:30;7.55;;;5.22;;
80219;SDS011;70247;37.958;23.722;2023-06-14T03:00:56;10.45;;;5.68;;
80219;SDS011;70247;37.958;23.722;2023-06-14T03:03:22;13.93;;;5.30;;
80219;SDS011;70247;37.958;23.722;2023-06-14T03:05:49;11.70;;;5.65;;
80219;SDS011;70247;37.958;23.722;2023-06-14T03:08:16;12.43;;;5.85;;
80219;SDS011;70247;37.958;23.722;2023-06-14T03:10:47;10.52;;;5.90;;
80219;SDS011;70247;37.958;23.722;2023-06-14T03:13:13;12.68;;;5.82;;
80219;SDS011;70247;37.958;23.722;2023-06-14T03:15:41;13.75;;;5.75;;
80219;SDS011;70247;37.958;23.722;2023-06-14T03:18:10;9.10;;;5.90;;
80219;SDS011;70247;37.958;23.722;2023-06-14T03:20:37;10.32;;;6.03;;
80219;SDS011;70247;37.958;23.722;2023-06-14T03:23:04;15.52;;;6.30;;
80219;SDS011;70247;37.958;23.722;2023-06-14T03:25:30;9.80;;;6.20;;
80219;SDS011;70247;37.958;23.722;2023-06-14T03:27:59;9.85;;;6.03;;
80219;SDS011;70247;37.958;23.722;2023-06-14T03:30:25;12.15;;;7.03;;
80219;SDS011;70247;37.958;23.722;2023-06-14T03:32:50;17.08;;;6.30;;
80219;SDS011;70247;37.958;23.722;2023-06-14T03:35:21;10.65;;;5.35;;
80219;SDS011;70247;37.958;23.722;2023-06-14T03:37:47;12.40;;;5.88;;
80219;SDS011;70247;37.958;23.722;2023-06-14T03:40:15;13.80;;;5.65;;
80219;SDS011;70247;37.958;23.722;2023-06-14T03:42:42;11.77;;;6.00;;
80219;SDS011;70247;37.958;23.722;2023-06-14T03:45:08;11.95;;;6.22;;
80219;SDS011;70247;37.958;23.722;2023-06-14T03:47:34;15.73;;;5.88;;
80219;SDS011;70247;37.958;23.722;2023-06-14T03:50:03;8.85;;;6.18;;
80219;SDS011;70247;37.958;23.722;2023-06-14T03:52:29;10.10;;;5.68;;
80219;SDS011;70247;37.958;23.722;2023-06-14T03:54:56;17.02;;;6.40;;
80219;SDS011;70247;37.958;23.722;2023-06-14T03:57:22;8.95;;;5.90;;
80219;SDS011;70247;37.958;23.722;2023-06-14T03:59:48;14.93;;;5.20;;
80219;SDS011;70247;37.958;23.722;2023-06-14T04:02:14;14.48;;;5.07;;
80219;SDS011;70247;37.958;23.722;2023-06-14T04:04:41;8.63;;;5.03;;
80219;SDS011;70247;37.958;23.722;2023-06-14T04:07:13;13.45;;;5.50;;
80219;SDS011;70247;37.958;23.722;2023-06-14T04:09:39;7.97;;;5.20;;
80219;SDS011;70247;37.958;23.722;2023-06-14T04:12:06;9.73;;;5.15;;
80219;SDS011;70247;37.958;23.722;2023-06-14T04:14:34;14.65;;;5.97;;
80219;SDS011;70247;37.958;23.722;2023-06-14T04:17:00;16.25;;;6.28;;
80219;SDS011;70247;37.958;23.722;2023-06-14T04:19:26;11.57;;;6.68;;
80219;SDS011;70247;37.958;23.722;2023-06-14T04:21:52;13.48;;;6.43;;
80219;SDS011;70247;37.958;23.722;2023-06-14T04:24:17;14.10;;;6.38;;
80219;SDS011;70247;37.958;23.722;2023-06-14T04:26:43;16.77;;;7.35;;
80219;SDS011;70247;37.958;23.722;2023-06-14T04:29:10;14.88;;;7.20;;
80219;SDS011;70247;37.958;23.722;2023-06-14T04:31:41;15.63;;;6.63;;
80219;SDS011;70247;37.958;23.722;2023-06-14T04:34:07;13.18;;;5.93;;
80219;SDS011;70247;37.958;23.722;2023-06-14T04:36:34;17.52;;;6.85;;
80219;SDS011;70247;37.958;23.722;2023-06-14T04:39:03;14.15;;;6.13;;
80219;SDS011;70247;37.958;23.722;2023-06-14T04:41:29;15.70;;;6.95;;
80219;SDS011;70247;37.958;23.722;2023-06-14T04:44:00;13.38;;;6.35;;
80219;SDS011;70247;37.958;23.722;2023-06-14T04:46:29;9.15;;;6.15;;
80219;SDS011;70247;37.958;23.722;2023-06-14T04:48:57;14.13;;;7.25;;
80219;SDS011;70247;37.958;23.722;2023-06-14T04:51:27;17.40;;;6.53;;
80219;SDS011;70247;37.958;23.722;2023-06-14T04:53:55;26.25;;;6.93;;
80219;SDS011;70247;37.958;23.722;2023-06-14T04:56:23;16.70;;;6.60;;
80219;SDS011;70247;37.958;23.722;2023-06-14T04:58:50;13.38;;;7.07;;
80219;SDS011;70247;37.958;23.722;2023-06-14T05:01:16;10.80;;;6.20;;
80219;SDS011;70247;37.958;23.722;2023-06-14T05:03:42;13.73;;;6.35;;
80219;SDS011;70247;37.958;23.722;2023-06-14T05:06:10;22.23;;;7.40;;
80219;SDS011;70247;37.958;23.722;2023-06-14T05:08:37;13.30;;;6.72;;
80219;SDS011;70247;37.958;23.722;2023-06-14T05:11:02;19.08;;;6.88;;
80219;SDS011;70247;37.958;23.722;2023-06-14T05:13:28;11.85;;;6.10;;
80219;SDS011;70247;37.958;23.722;2023-06-14T05:15:54;20.48;;;6.90;;
80219;SDS011;70247;37.958;23.722;2023-06-14T05:18:19;10.88;;;6.47;;
80219;SDS011;70247;37.958;23.722;2023-06-14T05:20:45;12.20;;;6.97;;
80219;SDS011;70247;37.958;23.722;2023-06-14T05:23:11;13.45;;;6.18;;
80219;SDS011;70247;37.958;23.722;2023-06-14T05:25:40;11.27;;;5.78;;
80219;SDS011;70247;37.958;23.722;2023-06-14T05:28:09;14.55;;;6.30;;
80219;SDS011;70247;37.958;23.722;2023-06-14T05:30:40;15.15;;;6.10;;
80219;SDS011;70247;37.958;23.722;2023-06-14T05:33:05;15.80;;;7.35;;
80219;SDS011;70247;37.958;23.722;2023-06-14T05:35:31;10.93;;;5.85;;
80219;SDS011;70247;37.958;23.722;2023-06-14T05:37:57;16.65;;;5.97;;
80219;SDS011;70247;37.958;23.722;2023-06-14T05:40:23;11.00;;;5.60;;
80219;SDS011;70247;37.958;23.722;2023-06-14T05:42:48;12.55;;;5.10;;
80219;SDS011;70247;37.958;23.722;2023-06-14T05:45:14;12.63;;;5.57;;
80219;SDS011;70247;37.958;23.722;2023-06-14T05:47:41;8.55;;;4.88;;
80219;SDS011;70247;37.958;23.722;2023-06-14T05:50:07;11.77;;;5.00;;
80219;SDS011;70247;37.958;23.722;2023-06-14T05:52:34;12.10;;;5.18;;
80219;SDS011;70247;37.958;23.722;2023-06-14T05:55:00;8.07;;;4.30;;
80219;SDS011;70247;37.958;23.722;2023-06-14T05:57:26;10.25;;;4.75;;
80219;SDS011;70247;37.958;23.722;2023-06-14T05:59:52;9.80;;;5.00;;
80219;SDS011;70247;37.958;23.722;2023-06-14T06:02:18;17.42;;;5.32;;
80219;SDS011;70247;37.958;23.722;2023-06-14T06:04:43;8.68;;;5.10;;
80219;SDS011;70247;37.958;23.722;2023-06-14T06:07:09;8.20;;;4.90;;
80219;SDS011;70247;37.958;23.722;2023-06-14T06:09:35;10.93;;;5.30;;
80219;SDS011;70247;37.958;23.722;2023-06-14T06:12:01;13.48;;;5.70;;
80219;SDS011;70247;37.958;23.722;2023-06-14T06:14:26;10.57;;;5.20;;
80219;SDS011;70247;37.958;23.722;2023-06-14T06:16:53;11.00;;;5.45;;
80219;SDS011;70247;37.958;23.722;2023-06-14T06:19:19;10.07;;;4.70;;
80219;SDS011;70247;37.958;23.722;2023-06-14T06:21:45;6.75;;;4.47;;
80219;SDS011;70247;37.958;23.722;2023-06-14T06:24:11;8.63;;;4.85;;
80219;SDS011;70247;37.958;23.722;2023-06-14T06:26:37;10.32;;;5.00;;
80219;SDS011;70247;37.958;23.722;2023-06-14T06:29:02;9.13;;;4.50;;
80219;SDS011;70247;37.958;23.722;2023-06-14T06:31:28;8.30;;;4.80;;
80219;SDS011;70247;37.958;23.722;2023-06-14T06:33:54;10.25;;;4.70;;
80219;SDS011;70247;37.958;23.722;2023-06-14T06:36:20;10.43;;;4.60;;
80219;SDS011;70247;37.958;23.722;2023-06-14T06:38:46;9.30;;;4.70;;
80219;SDS011;70247;37.958;23.722;2023-06-14T06:41:13;12.13;;;5.20;;
80219;SDS011;70247;37.958;23.722;2023-06-14T06:43:38;11.57;;;5.28;;
80219;SDS011;70247;37.958;23.722;2023-06-14T06:46:04;9.45;;;4.78;;
80219;SDS011;70247;37.958;23.722;2023-06-14T06:48:30;8.25;;;4.85;;
80219;SDS011;70247;37.958;23.722;2023-06-14T06:50:56;13.98;;;5.13;;
80219;SDS011;70247;37.958;23.722;2023-06-14T06:53:21;8.25;;;4.50;;
80219;SDS011;70247;37.958;23.722;2023-06-14T06:55:48;6.53;;;4.57;;
80219;SDS011;70247;37.958;23.722;2023-06-14T06:58:13;11.00;;;4.47;;
80219;SDS011;70247;37.958;23.722;2023-06-14T07:00:39;11.30;;;4.60;;
80219;SDS011;70247;37.958;23.722;2023-06-14T07:03:06;10.05;;;4.65;;
80219;SDS011;70247;37.958;23.722;2023-06-14T07:05:32;12.75;;;5.05;;
80219;SDS011;70247;37.958;23.722;2023-06-14T07:07:58;6.25;;;4.60;;
80219;SDS011;70247;37.958;23.722;2023-06-14T07:10:24;12.93;;;5.20;;
80219;SDS011;70247;37.958;23.722;2023-06-14T07:12:50;7.72;;;4.82;;
80219;SDS011;70247;37.958;23.722;2023-06-14T07:15:16;10.10;;;5.05;;
80219;SDS011;70247;37.958;23.722;2023-06-14T07:17:42;11.77;;;5.13;;
80219;SDS011;70247;37.958;23.722;2023-06-14T07:20:08;17.63;;;6.50;;
80219;SDS011;70247;37.958;23.722;2023-06-14T07:22:36;8.55;;;5.10;;
80219;SDS011;70247;37.958;23.722;2023-06-14T07:25:08;12.27;;;4.78;;
80219;SDS011;70247;37.958;23.722;2023-06-14T07:27:34;11.23;;;5.50;;
80219;SDS011;70247;37.958;23.722;2023-06-14T07:30:00;11.85;;;5.45;;
80219;SDS011;70247;37.958;23.722;2023-06-14T07:32:25;9.93;;;4.72;;
80219;SDS011;70247;37.958;23.722;2023-06-14T07:34:51;14.15;;;5.25;;
80219;SDS011;70247;37.958;23.722;2023-06-14T07:37:17;12.65;;;5.38;;
80219;SDS011;70247;37.958;23.722;2023-06-14T07:39:42;9.23;;;5.38;;
80219;SDS011;70247;37.958;23.722;2023-06-14T07:42:08;11.07;;;5.25;;
80219;SDS011;70247;37.958;23.722;2023-06-14T07:44:34;8.05;;;4.63;;
80219;SDS011;70247;37.958;23.722;2023-06-14T07:47:00;7.45;;;4.72;;
80219;SDS011;70247;37.958;23.722;2023-06-14T07:49:26;7.95;;;4.35;;
80219;SDS011;70247;37.958;23.722;2023-06-14T07:51:52;8.48;;;4.93;;
80219;SDS011;70247;37.958;23.722;2023-06-14T07:54:18;6.72;;;4.50;;
80219;SDS011;70247;37.958;23.722;2023-06-14T07:56:50;9.38;;;4.75;;
80219;SDS011;70247;37.958;23.722;2023-06-14T07:59:15;7.28;;;4.85;;
80219;SDS011;70247;37.958;23.722;2023-06-14T08:01:41;13.13;;;4.90;;
80219;SDS011;70247;37.958;23.722;2023-06-14T08:04:12;10.10;;;4.47;;
80219;SDS011;70247;37.958;23.722;2023-06-14T08:06:38;10.60;;;5.25;;
80219;SDS011;70247;37.958;23.722;2023-06-14T08:09:04;9.68;;;5.05;;
80219;SDS011;70247;37.958;23.722;2023-06-14T08:11:30;9.43;;;4.70;;
80219;SDS011;70247;37.958;23.722;2023-06-14T08:13:56;9.52;;;4.20;;
80219;SDS011;70247;37.958;23.722;2023-06-14T08:16:22;8.20;;;4.70;;
80219;SDS011;70247;37.958;23.722;2023-06-14T08:18:48;6.30;;;4.75;;
80219;SDS011;70247;37.958;23.722;2023-06-14T08:21:14;11.45;;;4.97;;
80219;SDS011;70247;37.958;23.722;2023-06-14T08:23:40;9.38;;;4.72;;
80219;SDS011;70247;37.958;23.722;2023-06-14T08:26:08;6.57;;;4.40;;
80219;SDS011;70247;37.958;23.722;2023-06-14T08:28:34;14.27;;;4.35;;
80219;SDS011;70247;37.958;23.722;2023-06-14T08:31:00;9.40;;;5.22;;
80219;SDS011;70247;37.958;23.722;2023-06-14T08:33:26;7.95;;;4.28;;
80219;SDS011;70247;37.958;23.722;2023-06-14T08:35:53;8.50;;;4.78;;
80219;SDS011;70247;37.958;23.722;2023-06-14T08:38:19;11.05;;;5.35;;
80219;SDS011;70247;37.958;23.722;2023-06-14T08:40:47;5.47;;;4.28;;
80219;SDS011;70247;37.958;23.722;2023-06-14T08:43:15;8.30;;;4.70;;
80219;SDS011;70247;37.958;23.722;2023-06-14T08:45:41;9.88;;;4.97;;
80219;SDS011;70247;37.958;23.722;2023-06-14T08:48:08;12.30;;;4.85;;
80219;SDS011;70247;37.958;23.722;2023-06-14T08:50:34;8.45;;;4.97;;
80219;SDS011;70247;37.958;23.722;2023-06-14T08:53:05;7.68;;;4.82;;
80219;SDS011;70247;37.958;23.722;2023-06-14T08:55:35;7.20;;;4.53;;
80219;SDS011;70247;37.958;23.722;2023-06-14T08:58:04;6.93;;;4.22;;
80219;SDS011;70247;37.958;23.722;2023-06-14T09:00:30;10.10;;;4.10;;
80219;SDS011;70247;37.958;23.722;2023-06-14T09:02:58;5.90;;;4.28;;
80219;SDS011;70247;37.958;23.722;2023-06-14T09:05:24;11.45;;;4.70;;
80219;SDS011;70247;37.958;23.722;2023-06-14T09:07:51;8.30;;;4.50;;
80219;SDS011;70247;37.958;23.722;2023-06-14T09:10:17;7.57;;;4.55;;
80219;SDS011;70247;37.958;23.722;2023-06-14T09:12:45;14.20;;;4.70;;
80219;SDS011;70247;37.958;23.722;2023-06-14T09:15:11;11.57;;;5.55;;
80219;SDS011;70247;37.958;23.722;2023-06-14T09:17:37;12.68;;;5.57;;
80219;SDS011;70247;37.958;23.722;2023-06-14T09:20:03;10.40;;;5.45;;
80219;SDS011;70247;37.958;23.722;2023-06-14T09:22:42;7.93;;;5.07;;
80219;SDS011;70247;37.958;23.722;2023-06-14T09:25:08;9.48;;;5.13;;
80219;SDS011;70247;37.958;23.722;2023-06-14T09:27:34;15.23;;;5.90;;
80219;SDS011;70247;37.958;23.722;2023-06-14T09:30:01;11.20;;;5.85;;
80219;SDS011;70247;37.958;23.722;2023-06-14T09:32:30;9.35;;;5.20;;
80219;SDS011;70247;37.958;23.722;2023-06-14T09:34:56;12.55;;;6.72;;
80219;SDS011;70247;37.958;23.722;2023-06-14T09:37:27;10.55;;;5.90;;
80219;SDS011;70247;37.958;23.722;2023-06-14T09:39:53;12.30;;;6.05;;
80219;SDS011;70247;37.958;23.722;2023-06-14T09:42:19;12.88;;;6.00;;
80219;SDS011;70247;37.958;23.722;2023-06-14T09:44:46;12.18;;;5.97;;
80219;SDS011;70247;37.958;23.722;2023-06-14T09:47:14;17.00;;;6.30;;
80219;SDS011;70247;37.958;23.722;2023-06-14T09:49:41;16.45;;;6.20;;
80219;SDS011;70247;37.958;23.722;2023-06-14T09:52:08;12.77;;;6.28;;
80219;SDS011;70247;37.958;23.722;2023-06-14T09:54:39;10.45;;;5.70;;
80219;SDS011;70247;37.958;23.722;2023-06-14T09:57:11;9.80;;;5.68;;
80219;SDS011;70247;37.958;23.722;2023-06-14T09:59:42;11.20;;;6.22;;
80219;SDS011;70247;37.958;23.722;2023-06-14T10:02:34;10.75;;;6.28;;
80219;SDS011;70247;37.958;23.722;2023-06-14T10:05:07;13.35;;;7.00;;
80219;SDS011;70247;37.958;23.722;2023-06-14T10:07:38;22.95;;;7.47;;
80219;SDS011;70247;37.958;23.722;2023-06-14T10:10:28;14.43;;;6.03;;
80219;SDS011;70247;37.958;23.722;2023-06-14T10:12:55;16.90;;;7.13;;
80219;SDS011;70247;37.958;23.722;2023-06-14T10:15:55;12.32;;;5.90;;
80219;SDS011;70247;37.958;23.722;2023-06-14T10:24:25;14.38;;;6.50;;
80219;SDS011;70247;37.958;23.722;2023-06-14T10:26:58;9.27;;;5.85;;
80219;SDS011;70247;37.958;23.722;2023-06-14T10:29:25;12.70;;;5.85;;
80219;SDS011;70247;37.958;23.722;2023-06-14T10:31:55;8.93;;;5.35;;
80219;SDS011;70247;37.958;23.722;2023-06-14T10:34:23;15.50;;;5.80;;
80219;SDS011;70247;37.958;23.722;2023-06-14T10:37:02;11.32;;;6.50;;
80219;SDS011;70247;37.958;23.722;2023-06-14T10:39:28;15.30;;;6.40;;
80219;SDS011;70247;37.958;23.722;2023-06-14T10:41:56;21.05;;;7.03;;
80219;SDS011;70247;37.958;23.722;2023-06-14T10:46:49;11.82;;;5.88;;
80219;SDS011;70247;37.958;23.722;2023-06-14T10:49:36;13.27;;;6.50;;
80219;SDS011;70247;37.958;23.722;2023-06-14T10:52:13;16.17;;;9.43;;
80219;SDS011;70247;37.958;23.722;2023-06-14T10:57:29;10.02;;;6.32;;
80219;SDS011;70247;37.958;23.722;2023-06-14T11:00:00;11.27;;;6.22;;
80219;SDS011;70247;37.958;23.722;2023-06-14T11:02:48;12.70;;;6.30;;
80219;SDS011;70247;37.958;23.722;2023-06-14T11:05:28;8.57;;;5.88;;
80219;SDS011;70247;37.958;23.722;2023-06-14T11:10:37;12.98;;;6.18;;
80219;SDS011;70247;37.958;23.722;2023-06-14T11:13:07;11.00;;;6.18;;
80219;SDS011;70247;37.958;23.722;2023-06-14T11:15:34;10.98;;;6.25;;
80219;SDS011;70247;37.958;23.722;2023-06-14T11:18:06;12.57;;;5.93;;
80219;SDS011;70247;37.958;23.722;2023-06-14T11:20:35;11.18;;;6.00;;
80219;SDS011;70247;37.958;23.722;2023-06-14T11:23:01;9.23;;;5.82;;
80219;SDS011;70247;37.958;23.722;2023-06-14T11:25:28;10.43;;;6.03;;
80219;SDS011;70247;37.958;23.722;2023-06-14T11:27:54;7.25;;;5.97;;
80219;SDS011;70247;37.958;23.722;2023-06-14T11:30:21;13.95;;;6.18;;
80219;SDS011;70247;37.958;23.722;2023-06-14T11:32:48;11.07;;;5.85;;
80219;SDS011;70247;37.958;23.722;2023-06-14T11:35:14;9.75;;;5.50;;
80219;SDS011;70247;37.958;23.722;2023-06-14T11:37:41;10.15;;;5.68;;
80219;SDS011;70247;37.958;23.722;2023-06-14T11:40:07;14.27;;;6.30;;
80219;SDS011;70247;37.958;23.722;2023-06-14T11:42:35;8.45;;;6.00;;
80219;SDS011;70247;37.958;23.722;2023-06-14T11:45:01;10.75;;;5.90;;
80219;SDS011;70247;37.958;23.722;2023-06-14T11:47:34;8.95;;;5.35;;
80219;SDS011;70247;37.958;23.722;2023-06-14T11:50:01;12.90;;;5.50;;
80219;SDS011;70247;37.958;23.722;2023-06-14T11:52:27;13.90;;;5.60;;
80219;SDS011;70247;37.958;23.722;2023-06-14T11:54:53;11.85;;;5.63;;
80219;SDS011;70247;37.958;23.722;2023-06-14T11:57:19;14.90;;;5.70;;
80219;SDS011;70247;37.958;23.722;2023-06-14T11:59:45;15.10;;;5.60;;
80219;SDS011;70247;37.958;23.722;2023-06-14T12:02:15;9.27;;;5.40;;
80219;SDS011;70247;37.958;23.722;2023-06-14T12:04:42;18.33;;;6.07;;
80219;SDS011;70247;37.958;23.722;2023-06-14T12:07:08;10.90;;;5.28;;
80219;SDS011;70247;37.958;23.722;2023-06-14T12:10:03;12.15;;;5.72;;
80219;SDS011;70247;37.958;23.722;2023-06-14T12:12:26;20.73;;;6.45;;
80219;SDS011;70247;37.958;23.722;2023-06-14T12:14:52;28.38;;;6.50;;
80219;SDS011;70247;37.958;23.722;2023-06-14T12:17:18;10.55;;;5.60;;
80219;SDS011;70247;37.958;23.722;2023-06-14T12:19:45;9.05;;;5.45;;
80219;SDS011;70247;37.958;23.722;2023-06-14T12:22:14;9.40;;;5.00;;
80219;SDS011;70247;37.958;23.722;2023-06-14T12:24:44;9.65;;;5.30;;
80219;SDS011;70247;37.958;23.722;2023-06-14T12:27:10;12.32;;;6.22;;
80219;SDS011;70247;37.958;23.722;2023-06-14T12:29:41;10.25;;;5.30;;
80219;SDS011;70247;37.958;23.722;2023-06-14T12:32:10;7.72;;;5.20;;
80219;SDS011;70247;37.958;23.722;2023-06-14T12:34:36;11.15;;;5.80;;
80219;SDS011;70247;37.958;23.722;2023-06-14T12:37:02;17.33;;;6.47;;
80219;SDS011;70247;37.958;23.722;2023-06-14T12:39:31;10.93;;;5.63;;
80219;SDS011;70247;37.958;23.722;2023-06-14T12:41:57;10.98;;;4.90;;
80219;SDS011;70247;37.958;23.722;2023-06-14T12:44:24;8.18;;;5.28;;
80219;SDS011;70247;37.958;23.722;2023-06-14T12:46:50;18.10;;;5.35;;
80219;SDS011;70247;37.958;23.722;2023-06-14T12:49:18;8.10;;;5.15;;
80219;SDS011;70247;37.958;23.722;2023-06-14T12:51:45;13.93;;;5.40;;
80219;SDS011;70247;37.958;23.722;2023-06-14T12:54:10;9.57;;;5.18;;
80219;SDS011;70247;37.958;23.722;2023-06-14T12:56:37;9.07;;;4.53;;
80219;SDS011;70247;37.958;23.722;2023-06-14T12:59:03;11.35;;;5.30;;
80219;SDS011;70247;37.958;23.722;2023-06-14T13:01:28;8.52;;;5.03;;
80219;SDS011;70247;37.958;23.722;2023-06-14T13:03:54;12.88;;;5.28;;
80219;SDS011;70247;37.958;23.722;2023-06-14T13:06:20;12.00;;;5.13;;
80219;SDS011;70247;37.958;23.722;2023-06-14T13:08:50;11.77;;;5.15;;
80219;SDS011;70247;37.958;23.722;2023-06-14T13:11:15;8.25;;;4.97;;
80219;SDS011;70247;37.958;23.722;2023-06-14T13:13:41;10.32;;;5.03;;
80219;SDS011;70247;37.958;23.722;2023-06-14T13:16:07;11.48;;;4.72;;
80219;SDS011;70247;37.958;23.722;2023-06-14T13:18:33;8.85;;;4.78;;
80219;SDS011;70247;37.958;23.722;2023-06-14T13:20:58;9.48;;;4.82;;
80219;SDS011;70247;37.958;23.722;2023-06-14T13:23:24;7.15;;;4.60;;
80219;SDS011;70247;37.958;23.722;2023-06-14T13:25:50;9.50;;;4.75;;
80219;SDS011;70247;37.958;23.722;2023-06-14T13:28:16;7.75;;;5.05;;
80219;SDS011;70247;37.958;23.722;2023-06-14T13:30:42;10.07;;;4.90;;
80219;SDS011;70247;37.958;23.722;2023-06-14T13:33:07;6.90;;;4.40;;
80219;SDS011;70247;37.958;23.722;2023-06-14T13:35:33;11.32;;;5.38;;
80219;SDS011;70247;37.958;23.722;2023-06-14T13:37:59;8.85;;;5.30;;
80219;SDS011;70247;37.958;23.722;2023-06-14T13:40:26;12.55;;;5.40;;
80219;SDS011;70247;37.958;23.722;2023-06-14T13:42:51;8.60;;;5.40;;
80219;SDS011;70247;37.958;23.722;2023-06-14T13:45:17;7.85;;;5.20;;
80219;SDS011;70247;37.958;23.722;2023-06-14T13:47:43;7.90;;;5.20;;
80219;SDS011;70247;37.958;23.722;2023-06-14T13:50:09;7.47;;;5.50;;
80219;SDS011;70247;37.958;23.722;2023-06-14T13:52:35;7.82;;;5.40;;
80219;SDS011;70247;37.958;23.722;2023-06-14T13:55:02;12.43;;;5.82;;
80219;SDS011;70247;37.958;23.722;2023-06-14T13:57:28;10.13;;;5.40;;
80219;SDS011;70247;37.958;23.722;2023-06-14T13:59:53;17.52;;;5.93;;
80219;SDS011;70247;37.958;23.722;2023-06-14T14:02:20;11.98;;;5.28;;
80219;SDS011;70247;37.958;23.722;2023-06-14T14:04:46;17.75;;;5.88;;
80219;SDS011;70247;37.958;23.722;2023-06-14T14:07:18;8.52;;;5.28;;
80219;SDS011;70247;37.958;23.722;2023-06-14T14:09:45;9.68;;;5.10;;
80219;SDS011;70247;37.958;23.722;2023-06-14T14:12:12;8.18;;;5.30;;
80219;SDS011;70247;37.958;23.722;2023-06-14T14:14:39;11.93;;;5.97;;
80219;SDS011;70247;37.958;23.722;2023-06-14T14:17:05;9.27;;;5.72;;
80219;SDS011;70247;37.958;23.722;2023-06-14T14:19:31;14.05;;;5.13;;
80219;SDS011;70247;37.958;23.722;2023-06-14T14:21:57;13.18;;;5.00;;
80219;SDS011;70247;37.958;23.722;2023-06-14T14:24:23;11.40;;;5.05;;
80219;SDS011;70247;37.958;23.722;2023-06-14T14:26:49;7.03;;;4.72;;
80219;SDS011;70247;37.958;23.722;2023-06-14T14:29:17;9.98;;;5.18;;
80219;SDS011;70247;37.958;23.722;2023-06-14T14:31:43;9.02;;;4.97;;
80219;SDS011;70247;37.958;23.722;2023-06-14T14:34:08;8.63;;;4.90;;
80219;SDS011;70247;37.958;23.722;2023-06-14T14:36:34;13.90;;;5.20;;
80219;SDS011;70247;37.958;23.722;2023-06-14T14:39:03;7.82;;;4.80;;
80219;SDS011;70247;37.958;23.722;2023-06-14T14:41:29;8.45;;;4.80;;
80219;SDS011;70247;37.958;23.722;2023-06-14T14:43:55;11.75;;;5.00;;
80219;SDS011;70247;37.958;23.722;2023-06-14T14:46:20;10.30;;;5.20;;